Time;durP1;ratioP1;P1;durP2;ratioP2;P2;SDS_P1;SDS_P2;PMS_P1;PMS_P2;Temp;Humidity;BMP_temperature;BMP_pressure;BME280_temperature;BME280_humidity;BME280_pressure;Samples;Min_cycle;Max_cycle;Signal;HPM_P1;HPM_P2
2022/01/09 00:00:34;;;;;;;;;;;5.50;99.90;;;5.63;100.00;98380.50;4943695;29;19927;-75
2022/01/09 00:03:01;;;;;;;;;;;6.30;99.90;;;5.61;100.00;98368.41;4942651;29;19935;-75
2022/01/09 00:05:28;;;;;;;;;;;7.00;99.90;;;5.55;100.00;98369.50;4927860;29;20492;-75
2022/01/09 00:07:55;;;;;;;;;;;6.20;99.90;;;5.60;100.00;98361.47;4943585;28;19931;-75
2022/01/09 00:10:23;;;;;;;;;;;5.20;99.90;;;5.57;100.00;98359.00;4927628;29;20314;-75
2022/01/09 00:12:50;;;;;;;;;;;5.60;99.90;;;5.52;100.00;98360.00;4942659;29;19941;-75
2022/01/09 00:15:17;;;;;;;;;;;7.20;99.90;;;5.60;100.00;98349.31;4944537;28;19957;-75
2022/01/09 00:17:44;;;;;;;;;;;5.30;99.90;;;5.59;100.00;98347.59;4962383;28;20411;-75
2022/01/09 00:20:12;;;;;;;;;;;7.50;99.90;;;5.61;100.00;98340.56;4945077;28;20638;-75
2022/01/09 00:22:48;;;;;;;;;;;5.40;99.90;;;5.54;100.00;98334.72;4943251;29;19931;-74
2022/01/09 00:25:17;;;;;;;;;;;5.20;99.90;;;5.54;100.00;98326.03;4941932;29;19931;-75
2022/01/09 00:27:45;;;;;;;;;;;5.40;99.90;;;5.60;100.00;98330.19;4943477;28;20318;-75
2022/01/09 00:30:13;;;;;;;;;;;6.70;99.90;;;5.61;100.00;98331.88;4943209;29;19938;-73
2022/01/09 00:32:40;;;;;;;;;;;6.60;99.90;;;5.59;100.00;98318.91;4942713;29;20017;-75
2022/01/09 00:35:08;;;;;;;;;;;5.20;99.90;;;5.66;100.00;98315.16;4942908;29;19938;-76
2022/01/09 00:37:35;;;;;;;;;;;5.40;99.90;;;5.61;100.00;98309.25;4927717;29;19938;-75
2022/01/09 00:40:07;;;;;;;;;;;5.30;99.90;;;5.64;100.00;98303.09;4943376;29;19945;-75
2022/01/09 00:42:33;;;;;;;;;;;5.40;99.90;;;5.63;100.00;98307.44;4942527;29;19934;-74
2022/01/09 00:45:01;;;;;;;;;;;6.50;99.90;;;5.64;100.00;98297.88;4944121;28;19957;-74
2022/01/09 00:47:28;;;;;;;;;;;6.40;99.90;;;5.65;100.00;98299.56;4947820;28;20030;-74
2022/01/09 00:49:55;;;;;;;;;;;5.40;99.90;;;5.67;100.00;98289.94;4947737;28;19927;-75
2022/01/09 00:52:22;;;;;;;;;;;5.30;99.90;;;5.66;100.00;98291.66;4945941;29;19930;-76
2022/01/09 00:54:49;;;;;;;;;;;5.30;99.90;;;5.68;100.00;98289.00;4946185;29;20034;-74
2022/01/09 00:57:15;;;;;;;;;;;5.40;99.90;;;5.73;100.00;98275.81;4946363;28;19939;-74
2022/01/09 00:59:42;;;;;;;;;;;7.00;99.90;;;5.70;100.00;98266.31;4947683;28;19953;-75
2022/01/09 01:02:09;;;;;;;;;;;7.70;99.90;;;5.73;100.00;98260.97;4947731;28;19926;-75
2022/01/09 01:04:38;;;;;;;;;;;6.60;99.90;;;5.77;100.00;98253.91;4929330;28;19930;-74
2022/01/09 01:07:06;;;;;;;;;;;6.70;99.90;;;5.72;100.00;98259.28;4947547;28;19934;-75
2022/01/09 01:09:33;;;;;;;;;;;7.30;99.90;;;5.77;100.00;98251.28;4946341;29;19926;-74
2022/01/09 01:12:01;;;;;;;;;;;6.30;99.90;;;5.76;100.00;98252.19;4927096;29;20013;-74
2022/01/09 01:14:31;;;;;;;;;;;6.00;99.90;;;5.77;100.00;98248.66;4927132;29;19941;-74
2022/01/09 01:16:58;;;;;;;;;;;5.40;99.90;;;5.76;100.00;98242.59;4928316;29;19937;-75
2022/01/09 01:19:25;;;;;;;;;;;4.90;99.90;;;5.79;100.00;98242.50;4942860;28;19931;-75
2022/01/09 01:21:52;;;;;;;;;;;6.40;99.90;;;5.80;100.00;98238.97;4926625;29;19930;-75
2022/01/09 01:24:21;;;;;;;;;;;6.30;99.90;;;5.79;100.00;98236.41;4959852;28;19926;-75
2022/01/09 01:26:48;;;;;;;;;;;6.30;99.90;;;5.85;100.00;98228.34;4955160;28;20488;-74
2022/01/09 01:29:16;;;;;;;;;;;5.60;99.90;;;5.88;100.00;98240.41;4961560;28;19930;-75
2022/01/09 01:31:43;;;;;;;;;;;5.50;99.90;;;5.89;100.00;98237.75;4961760;28;19931;-74
2022/01/09 01:34:12;;;;;;;;;;;5.70;99.90;;;5.99;100.00;98246.09;4946289;28;20657;-75
2022/01/09 01:36:40;;;;;;;;;;;8.30;99.90;;;6.09;100.00;98252.69;4947298;28;19939;-75
2022/01/09 01:39:07;;;;;;;;;;;6.70;99.90;;;6.37;100.00;98246.31;4945710;29;19937;-75
2022/01/09 01:41:34;;;;;;;;;;;6.30;99.90;;;6.66;100.00;98253.88;4945490;28;19938;-75
2022/01/09 01:44:01;;;;;;;;;;;6.50;99.90;;;6.76;100.00;98241.28;4945873;28;19961;-74
2022/01/09 01:46:28;;;;;;;;;;;6.60;99.90;;;6.91;100.00;98252.81;4945958;29;19937;-74
2022/01/09 01:48:55;;;;;;;;;;;8.80;99.90;;;6.92;100.00;98255.38;4944821;29;19927;-74
2022/01/09 01:51:22;;;;;;;;;;;7.50;99.90;;;7.04;100.00;98247.94;4946431;28;19930;-75
2022/01/09 01:53:49;;;;;;;;;;;7.40;99.90;;;7.02;100.00;98247.13;4945918;28;19931;-74
2022/01/09 01:56:19;;;;;;;;;;;8.00;99.90;;;7.00;100.00;98251.59;4944476;28;19930;-74
2022/01/09 01:58:48;;;;;;;;;;;8.90;99.90;;;6.95;100.00;98257.03;4945387;29;20577;-75
2022/01/09 02:01:15;;;;;;;;;;;9.70;99.90;;;6.92;100.00;98272.81;4945591;29;20402;-75
2022/01/09 02:03:42;;;;;;;;;;;6.80;99.90;;;6.97;100.00;98263.03;4928645;29;20592;-74
2022/01/09 02:06:12;;;;;;;;;;;8.50;99.90;;;6.96;100.00;98271.81;4945386;28;19996;-75
2022/01/09 02:08:39;;;;;;;;;;;6.90;99.90;;;6.90;100.00;98262.44;4945389;29;19965;-75
2022/01/09 02:11:05;;;;;;;;;;;8.70;99.90;;;6.96;100.00;98250.88;4944889;29;20406;-75
2022/01/09 02:13:33;;;;;;;;;;;8.20;99.90;;;6.89;100.00;98257.28;4975590;28;19930;-75
2022/01/09 02:16:01;;;;;;;;;;;8.70;99.90;;;6.88;100.00;98263.44;4960644;28;19937;-75
2022/01/09 02:18:28;;;;;;;;;;;5.50;99.90;;;6.95;100.00;98250.03;4976800;28;20387;-74
2022/01/09 02:20:55;;;;;;;;;;;6.60;99.90;;;7.01;100.00;98266.34;4944800;28;20637;-75
2022/01/09 02:23:22;;;;;;;;;;;7.00;99.90;;;6.98;100.00;98264.75;4945256;28;20729;-75
2022/01/09 02:25:50;;;;;;;;;;;7.80;99.90;;;6.91;100.00;98261.53;4946348;28;19933;-74
2022/01/09 02:28:18;;;;;;;;;;;7.60;99.90;;;7.02;100.00;98268.03;4960424;28;19935;-76
2022/01/09 02:30:45;;;;;;;;;;;7.90;99.90;;;7.03;100.00;98273.22;4976984;28;19927;-74
2022/01/09 02:33:17;;;;;;;;;;;8.20;99.90;;;7.03;100.00;98282.84;4975976;28;19930;-74
2022/01/09 02:35:47;;;;;;;;;;;7.30;99.90;;;7.05;100.00;98273.16;4946551;28;19930;-74
2022/01/09 02:38:14;;;;;;;;;;;7.40;99.90;;;7.01;100.00;98279.44;4975668;28;19931;-74
2022/01/09 02:40:41;;;;;;;;;;;8.30;99.90;;;7.13;100.00;98288.53;4976655;28;19935;-75
2022/01/09 02:43:08;;;;;;;;;;;7.00;99.90;;;7.08;100.00;98292.16;4945269;28;19953;-73
2022/01/09 02:45:35;;;;;;;;;;;8.20;99.90;;;7.11;100.00;98291.19;4946010;28;19933;-74
2022/01/09 02:48:03;;;;;;;;;;;6.80;99.90;;;7.09;100.00;98298.25;4976410;28;20411;-75
2022/01/09 02:50:38;;;;;;;;;;;7.10;99.90;;;7.09;100.00;98304.31;4946124;28;20315;-74
2022/01/09 02:53:17;;;;;;;;;;;9.00;99.90;;;7.16;100.00;98304.91;4958918;28;19934;-73
2022/01/09 02:55:44;;;;;;;;;;;8.00;99.90;;;7.12;100.00;98308.59;4973661;28;20347;-74
2022/01/09 02:58:11;;;;;;;;;;;6.90;99.90;;;7.11;100.00;98317.34;4976502;28;19930;-74
2022/01/09 03:00:42;;;;;;;;;;;8.40;99.90;;;7.02;100.00;98318.59;4944561;28;19931;-73
2022/01/09 03:03:11;;;;;;;;;;;6.90;99.90;;;7.08;100.00;98328.78;4975029;28;19930;-74
2022/01/09 03:05:38;;;;;;;;;;;6.90;99.90;;;7.16;100.00;98325.84;4960116;28;20291;-75
2022/01/09 03:08:05;;;;;;;;;;;6.50;99.90;;;7.14;100.00;98345.97;4944175;28;19934;-74
2022/01/09 03:10:32;;;;;;;;;;;6.90;99.90;;;7.06;100.00;98351.53;4960228;28;19930;-74
2022/01/09 03:12:59;;;;;;;;;;;7.80;99.90;;;7.03;100.00;98348.22;4958993;28;19930;-75
2022/01/09 03:15:26;;;;;;;;;;;7.00;99.90;;;7.01;100.00;98352.63;4975790;28;19938;-75
2022/01/09 03:17:53;;;;;;;;;;;7.60;99.90;;;7.03;100.00;98369.97;4960358;28;19938;-76
2022/01/09 03:20:22;;;;;;;;;;;9.40;99.90;;;6.93;100.00;98368.66;4976204;28;19941;-75
2022/01/09 03:22:49;;;;;;;;;;;7.30;99.90;;;6.95;100.00;98372.91;4975328;28;19927;-75
2022/01/09 03:25:17;;;;;;;;;;;8.40;99.90;;;6.91;100.00;98381.81;4945120;28;20307;-74
2022/01/09 03:27:46;;;;;;;;;;;6.50;99.90;;;6.88;100.00;98384.53;4947844;28;19937;-75
2022/01/09 03:30:13;;;;;;;;;;;7.50;99.90;;;6.87;100.00;98393.31;4928112;29;19931;-74
2022/01/09 03:32:41;;;;;;;;;;;7.50;99.90;;;6.89;100.00;98408.91;4931215;28;20315;-74
2022/01/09 03:35:11;;;;;;;;;;;6.70;99.90;;;6.76;100.00;98413.78;4944992;28;19937;-75
2022/01/09 03:37:39;;;;;;;;;;;6.90;99.90;;;6.75;100.00;98412.09;4928551;28;19930;-75
2022/01/09 03:40:09;;;;;;;;;;;6.60;99.90;;;6.76;100.00;98422.47;4944725;29;19937;-75
2022/01/09 03:42:36;;;;;;;;;;;6.80;99.90;;;6.79;100.00;98421.50;4928140;29;20591;-74
2022/01/09 03:45:05;;;;;;;;;;;6.70;99.90;;;6.74;100.00;98432.13;4943471;29;19934;-75
2022/01/09 03:47:32;;;;;;;;;;;10.20;99.90;;;6.70;100.00;98427.06;4944595;28;19935;-75
2022/01/09 03:49:59;;;;;;;;;;;6.80;99.90;;;6.71;100.00;98426.16;4944014;28;19937;-75
2022/01/09 03:52:27;;;;;;;;;;;6.60;99.90;;;6.65;100.00;98448.19;4942997;29;19953;-73
2022/01/09 03:54:55;;;;;;;;;;;8.30;99.90;;;6.66;100.00;98450.72;4943264;29;20311;-73
2022/01/09 03:57:22;;;;;;;;;;;9.60;99.90;;;6.65;100.00;98451.63;4927938;29;19930;-74
2022/01/09 03:59:49;;;;;;;;;;;8.20;99.90;;;6.65;100.00;98456.88;4944703;28;19938;-75
2022/01/09 04:02:16;;;;;;;;;;;6.70;99.90;;;6.66;100.00;98444.66;4926009;29;20586;-74
2022/01/09 04:04:43;;;;;;;;;;;9.30;99.90;;;6.61;100.00;98460.50;4943385;29;19937;-75
2022/01/09 04:07:10;;;;;;;;;;;8.00;99.90;;;6.64;100.00;98457.78;4943397;28;20524;-75
2022/01/09 04:09:41;;;;;;;;;;;7.10;99.90;;;6.64;100.00;98470.84;4928093;29;19930;-76
2022/01/09 04:12:18;;;;;;;;;;;6.70;99.90;;;6.60;100.00;98471.00;4944516;28;19931;-75
2022/01/09 04:14:47;;;;;;;;;;;6.60;99.90;;;6.58;100.00;98485.91;4944073;28;19934;-75
2022/01/09 04:17:31;;;;;;;;;;;6.60;99.90;;;6.64;100.00;98498.75;4944490;28;19937;-75
2022/01/09 04:19:58;;;;;;;;;;;7.30;99.90;;;6.68;100.00;98500.34;4973059;28;19946;-75
2022/01/09 04:22:25;;;;;;;;;;;7.70;99.90;;;6.67;100.00;98496.03;4947517;28;19937;-74
2022/01/09 04:24:52;;;;;;;;;;;7.30;99.90;;;6.52;100.00;98529.66;4978325;28;19930;-76
2022/01/09 04:27:19;;;;;;;;;;;6.60;99.90;;;6.61;100.00;98531.06;4978964;28;19926;-75
2022/01/09 04:29:46;;;;;;;;;;;6.30;99.90;;;6.56;100.00;98533.00;4948229;28;19930;-75
2022/01/09 04:32:13;;;;;;;;;;;6.40;99.90;;;6.55;100.00;98553.97;4947661;28;19931;-74
2022/01/09 04:34:40;;;;;;;;;;;8.80;99.90;;;6.57;100.00;98558.22;4947280;28;20288;-74
2022/01/09 04:37:07;;;;;;;;;;;6.50;99.90;;;6.44;100.00;98570.03;4978666;28;19930;-75
2022/01/09 04:39:34;;;;;;;;;;;6.40;99.90;;;6.40;100.00;98584.97;4948156;28;19953;-75
2022/01/09 04:42:01;;;;;;;;;;;8.60;99.90;;;6.45;100.00;98587.41;4978599;28;20751;-75
2022/01/09 04:44:28;;;;;;;;;;;9.30;99.90;;;6.32;100.00;98600.91;4961348;28;19938;-75
2022/01/09 04:47:00;;;;;;;;;;;6.30;99.90;;;6.28;100.00;98599.31;4978232;28;19949;-74
2022/01/09 04:49:35;;;;;;;;;;;6.40;99.90;;;6.35;100.00;98618.25;4977386;28;19934;-75
2022/01/09 04:52:04;;;;;;;;;;;6.40;99.90;;;6.22;100.00;98617.78;4976217;28;20362;-75
2022/01/09 04:54:31;;;;;;;;;;;6.30;99.90;;;6.19;100.00;98637.06;4946235;28;19942;-74
2022/01/09 04:57:01;;;;;;;;;;;6.30;99.90;;;6.10;100.00;98643.44;4977909;28;19937;-74
2022/01/09 04:59:29;;;;;;;;;;;6.10;99.90;;;6.00;100.00;98652.44;4977349;28;19930;-75
2022/01/09 05:01:56;;;;;;;;;;;6.00;99.90;;;6.01;100.00;98662.00;4946895;28;19937;-74
2022/01/09 05:04:23;;;;;;;;;;;6.20;99.90;;;5.78;100.00;98666.19;4977173;28;20486;-74
2022/01/09 05:06:50;;;;;;;;;;;5.10;99.90;;;5.84;100.00;98678.16;4978372;28;19930;-75
2022/01/09 05:09:17;;;;;;;;;;;5.80;99.90;;;5.77;100.00;98690.56;4962374;28;19941;-75
2022/01/09 05:11:44;;;;;;;;;;;6.90;99.90;;;5.75;100.00;98684.53;4978117;28;19930;-75
2022/01/09 05:14:11;;;;;;;;;;;5.70;99.90;;;5.72;100.00;98697.69;4946226;28;20357;-75
2022/01/09 05:16:42;;;;;;;;;;;5.30;99.90;;;5.70;100.00;98696.88;4946841;28;19937;-75
2022/01/09 05:19:17;;;;;;;;;;;5.70;99.90;;;5.74;100.00;98714.16;4946687;29;19930;-75
2022/01/09 05:21:45;;;;;;;;;;;5.70;99.90;;;5.62;100.00;98731.03;4947598;28;19934;-75
2022/01/09 05:24:12;;;;;;;;;;;5.80;99.90;;;5.64;100.00;98734.44;4928813;29;19930;-75
2022/01/09 05:26:39;;;;;;;;;;;5.40;99.90;;;5.62;100.00;98738.88;4947917;28;19930;-75
2022/01/09 05:29:06;;;;;;;;;;;5.80;99.90;;;5.67;100.00;98744.78;4945770;28;19927;-75
2022/01/09 05:31:33;;;;;;;;;;;5.70;99.90;;;5.57;100.00;98737.28;4945526;28;19930;-75
2022/01/09 05:33:59;;;;;;;;;;;6.60;99.90;;;5.60;100.00;98740.66;4963811;28;20415;-75
2022/01/09 05:36:26;;;;;;;;;;;5.70;99.90;;;5.51;100.00;98757.44;4965806;28;20696;-74
2022/01/09 05:38:54;;;;;;;;;;;5.80;99.90;;;5.54;100.00;98754.75;4966225;28;19938;-75
2022/01/09 05:41:21;;;;;;;;;;;5.50;99.90;;;5.56;100.00;98767.75;4965654;28;19930;-74
2022/01/09 05:43:48;;;;;;;;;;;6.40;99.90;;;5.62;100.00;98782.34;4964448;28;19930;-75
2022/01/09 05:46:15;;;;;;;;;;;5.50;99.90;;;5.63;100.00;98778.88;4966635;28;19934;-74
2022/01/09 05:48:42;;;;;;;;;;;6.20;99.90;;;5.50;100.00;98794.88;4965710;28;19976;-75
2022/01/09 05:51:09;;;;;;;;;;;8.30;99.90;;;5.54;100.00;98779.97;4965323;28;19927;-75
2022/01/09 05:53:36;;;;;;;;;;;7.60;99.90;;;5.61;100.00;98788.47;4963875;28;19937;-76
2022/01/09 05:56:04;;;;;;;;;;;6.30;99.90;;;5.61;100.00;98791.94;4948203;28;19930;-75
2022/01/09 05:58:33;;;;;;;;;;;5.50;99.90;;;5.56;100.00;98798.19;4947286;28;19935;-75
2022/01/09 06:01:00;;;;;;;;;;;5.40;99.90;;;5.60;100.00;98811.13;4959834;28;19930;-74
2022/01/09 06:03:27;;;;;;;;;;;5.40;99.90;;;5.54;100.00;98814.75;4960473;28;20012;-74
2022/01/09 06:05:54;;;;;;;;;;;5.50;99.90;;;5.62;100.00;98818.88;4947261;28;19927;-74
2022/01/09 06:08:21;;;;;;;;;;;6.20;99.90;;;5.63;100.00;98831.06;4945606;29;19941;-74
2022/01/09 06:10:48;;;;;;;;;;;7.10;99.90;;;5.65;100.00;98824.88;4947241;28;19930;-75
2022/01/09 06:13:15;;;;;;;;;;;5.80;99.90;;;5.66;100.00;98831.81;4946638;28;19976;-74
2022/01/09 06:15:42;;;;;;;;;;;5.60;99.90;;;5.61;100.00;98836.31;4946944;28;20370;-74
2022/01/09 06:18:09;;;;;;;;;;;8.20;99.90;;;5.66;100.00;98839.63;4945496;28;19930;-74
2022/01/09 06:20:36;;;;;;;;;;;7.90;99.90;;;5.61;100.00;98838.91;4913885;29;19926;-74
2022/01/09 06:23:03;;;;;;;;;;;5.80;99.90;;;5.58;100.00;98862.50;4946492;28;19942;-74
2022/01/09 06:25:31;;;;;;;;;;;5.40;99.90;;;5.58;100.00;98856.41;4929925;29;19946;-75
2022/01/09 06:27:58;;;;;;;;;;;7.70;99.90;;;5.51;100.00;98860.94;4945269;28;20314;-74
2022/01/09 06:30:25;;;;;;;;;;;5.60;99.90;;;5.46;100.00;98879.31;4945161;29;19930;-74
2022/01/09 06:32:51;;;;;;;;;;;6.30;99.90;;;5.50;100.00;98883.56;4946239;28;19934;-75
2022/01/09 06:35:18;;;;;;;;;;;5.60;99.90;;;5.44;100.00;98883.72;4945417;29;19937;-75
2022/01/09 06:37:45;;;;;;;;;;;5.50;99.90;;;5.41;100.00;98883.81;4945809;28;20375;-74
2022/01/09 06:40:13;;;;;;;;;;;5.60;99.90;;;5.41;100.00;98899.47;4946788;28;20410;-74
2022/01/09 06:42:40;;;;;;;;;;;5.50;99.90;;;5.47;100.00;98901.06;4946583;28;19930;-76
2022/01/09 06:45:07;;;;;;;;;;;5.10;99.90;;;5.44;100.00;98911.59;4946081;29;20421;-74
2022/01/09 06:47:34;;;;;;;;;;;5.30;99.90;;;5.41;100.00;98919.50;4946168;28;19930;-74
2022/01/09 06:50:01;;;;;;;;;;;6.90;99.90;;;5.46;100.00;98922.81;4946433;28;19972;-75
2022/01/09 06:52:28;;;;;;;;;;;6.90;99.90;;;5.48;100.00;98927.13;4945765;28;19931;-74
2022/01/09 06:54:54;;;;;;;;;;;5.40;99.90;;;5.41;100.00;98938.59;4944918;29;19956;-75
2022/01/09 06:57:21;;;;;;;;;;;5.50;99.90;;;5.48;100.00;98942.78;4944907;28;19938;-74
2022/01/09 06:59:48;;;;;;;;;;;7.00;99.90;;;5.47;100.00;98950.63;4944480;29;19937;-74
2022/01/09 07:02:15;;;;;;;;;;;5.50;99.90;;;5.47;100.00;98963.66;4945742;28;19927;-75
2022/01/09 07:04:42;;;;;;;;;;;5.40;99.90;;;5.43;100.00;98959.44;4944738;29;19934;-75
2022/01/09 07:07:10;;;;;;;;;;;5.40;99.90;;;5.47;100.00;98968.88;4929302;29;19930;-75
2022/01/09 07:09:37;;;;;;;;;;;6.10;99.90;;;5.44;100.00;98968.97;4944490;29;20639;-74
2022/01/09 07:12:04;;;;;;;;;;;6.60;99.90;;;5.42;100.00;98978.59;4928517;29;20307;-74
2022/01/09 07:14:31;;;;;;;;;;;5.20;99.90;;;5.39;100.00;98984.72;4945405;28;19938;-75
2022/01/09 07:16:58;;;;;;;;;;;5.40;99.90;;;5.42;100.00;98991.63;4944191;29;19937;-75
2022/01/09 07:19:25;;;;;;;;;;;6.30;99.90;;;5.42;100.00;99000.31;4944291;29;19931;-75
2022/01/09 07:21:52;;;;;;;;;;;7.80;99.90;;;5.49;100.00;98999.25;4945163;28;19935;-73
2022/01/09 07:24:19;;;;;;;;;;;5.40;99.90;;;5.48;100.00;99005.38;4962597;28;19937;-75
2022/01/09 07:26:46;;;;;;;;;;;6.90;99.90;;;5.51;100.00;99012.25;4963459;28;19963;-75
2022/01/09 07:29:13;;;;;;;;;;;7.00;99.90;;;5.42;100.00;99022.94;4963051;28;20306;-74
2022/01/09 07:31:40;;;;;;;;;;;5.30;99.90;;;5.51;100.00;99026.16;4963615;28;20291;-74
2022/01/09 07:34:06;;;;;;;;;;;7.00;99.90;;;5.47;100.00;99024.53;4964449;28;20306;-75
2022/01/09 07:36:33;;;;;;;;;;;6.80;99.90;;;5.55;100.00;99032.19;4961489;28;19941;-75
2022/01/09 07:39:00;;;;;;;;;;;5.50;99.90;;;5.71;100.00;99022.19;4963179;28;20391;-76
2022/01/09 07:41:27;;;;;;;;;;;6.70;99.90;;;5.78;100.00;99039.44;4963804;28;20435;-75
2022/01/09 07:43:54;;;;;;;;;;;8.70;99.90;;;5.71;100.00;99043.06;4963078;28;20442;-77
2022/01/09 07:46:21;;;;;;;;;;;5.90;99.90;;;5.73;100.00;99043.88;4963394;28;19937;-76
2022/01/09 07:48:48;;;;;;;;;;;6.70;99.90;;;5.72;100.00;99049.16;4963379;28;20312;-76
2022/01/09 07:51:15;;;;;;;;;;;8.20;99.90;;;5.66;100.00;99045.78;4949976;28;19926;-76
2022/01/09 07:53:42;;;;;;;;;;;8.20;99.90;;;5.66;100.00;99045.78;4963460;28;20790;-76
2022/01/09 07:56:08;;;;;;;;;;;5.70;99.90;;;5.70;100.00;99056.16;4943717;29;19930;-77
2022/01/09 07:58:35;;;;;;;;;;;6.80;99.90;;;5.69;100.00;99065.75;4945821;28;20307;-78
2022/01/09 08:01:02;;;;;;;;;;;5.50;99.90;;;5.72;100.00;99070.03;4947455;28;19941;-78
2022/01/09 08:03:30;;;;;;;;;;;6.00;99.90;;;5.73;100.00;99072.59;4929656;29;19937;-77
2022/01/09 08:05:57;;;;;;;;;;;5.70;99.90;;;5.77;100.00;99071.63;4946874;28;20033;-77
2022/01/09 08:08:24;;;;;;;;;;;3.80;99.90;;;5.77;100.00;99081.22;4948415;28;19930;-77
2022/01/09 08:10:52;;;;;;;;;;;8.10;99.90;;;5.74;100.00;99079.53;4969114;28;19933;-77
2022/01/09 08:13:19;;;;;;;;;;;5.80;99.90;;;5.78;100.00;99075.97;4944084;29;19930;-76
2022/01/09 08:15:46;;;;;;;;;;;5.80;99.90;;;5.78;100.00;99082.94;4944923;29;20648;-78
2022/01/09 08:18:13;;;;;;;;;;;7.80;99.90;;;5.78;100.00;99086.41;4944139;29;20504;-76
2022/01/09 08:20:40;;;;;;;;;;;7.00;99.90;;;5.83;100.00;99094.09;4929263;29;19937;-78
2022/01/09 08:23:07;;;;;;;;;;;6.50;99.90;;;5.76;100.00;99087.34;4951550;28;20310;-75
2022/01/09 08:25:35;;;;;;;;;;;5.70;99.90;;;5.77;100.00;99100.31;4946835;28;19998;-75
2022/01/09 08:28:02;;;;;;;;;;;6.00;99.90;;;5.74;100.00;99102.19;4971162;28;19930;-77
2022/01/09 08:30:28;;;;;;;;;;;7.00;99.90;;;5.75;100.00;99104.72;4968562;28;19931;-76
2022/01/09 08:32:55;;;;;;;;;;;5.70;99.90;;;5.75;100.00;99109.94;4948872;28;19954;-75
2022/01/09 08:35:22;;;;;;;;;;;5.80;99.90;;;5.81;100.00;99125.47;4980599;28;19962;-78
2022/01/09 08:37:51;;;;;;;;;;;7.30;99.90;;;5.73;100.00;99124.78;4949499;28;19930;-77
2022/01/09 08:40:21;;;;;;;;;;;6.40;99.90;;;5.70;100.00;99135.31;4968640;28;20479;-77
2022/01/09 08:42:50;;;;;;;;;;;6.60;99.90;;;5.72;100.00;99130.06;4965035;28;20018;-76
2022/01/09 08:45:17;;;;;;;;;;;5.80;99.90;;;5.76;100.00;99134.31;4973834;28;19941;-75
2022/01/09 08:47:44;;;;;;;;;;;6.80;99.90;;;5.76;100.00;99136.94;4942760;28;20423;-76
2022/01/09 08:50:13;;;;;;;;;;;8.70;99.90;;;5.75;100.00;99143.88;4926962;29;19931;-76
2022/01/09 08:52:40;;;;;;;;;;;5.90;99.90;;;5.73;100.00;99153.50;4927258;29;19931;-76
2022/01/09 08:55:07;;;;;;;;;;;5.70;99.90;;;5.81;100.00;99158.53;4947326;29;19930;-79
2022/01/09 08:57:34;;;;;;;;;;;9.20;99.90;;;5.74;100.00;99151.78;4946142;29;19926;-79
2022/01/09 09:00:04;;;;;;;;;;;5.80;99.90;;;5.74;100.00;99151.78;4973097;28;19942;-79
2022/01/09 09:02:32;;;;;;;;;;;5.90;99.90;;;5.74;100.00;99157.00;4932334;29;19937;-79
2022/01/09 09:05:02;;;;;;;;;;;2.90;99.90;;;5.74;100.00;99144.78;4966180;28;19933;-79
2022/01/09 09:07:29;;;;;;;;;;;5.60;99.90;;;5.75;100.00;99151.72;4934585;28;20005;-79
2022/01/09 09:10:03;;;;;;;;;;;5.90;99.90;;;5.75;100.00;99162.16;4948321;28;19976;-79
2022/01/09 09:12:32;;;;;;;;;;;6.80;99.90;;;5.73;100.00;99156.13;4954163;28;19925;-80
2022/01/09 09:15:03;;;;;;;;;;;5.60;99.90;;;5.86;100.00;99158.44;4934951;28;20397;-78
2022/01/09 09:17:31;;;;;;;;;;;9.20;99.90;;;5.79;100.00;99157.72;4968436;28;20768;-78
2022/01/09 09:19:58;;;;;;;;;;;3.30;99.90;;;5.85;100.00;99181.06;4957685;28;19994;-79
2022/01/09 09:22:25;;;;;;;;;;;6.80;99.90;;;5.85;100.00;99175.00;4938539;28;19930;-78
2022/01/09 09:24:52;;;;;;;;;;;6.30;99.90;;;5.94;100.00;99185.22;4968465;28;19930;-78
2022/01/09 09:27:19;;;;;;;;;;;9.40;99.90;;;5.75;100.00;99187.41;4957994;28;19930;-78
2022/01/09 09:29:46;;;;;;;;;;;3.50;99.90;;;5.89;100.00;99189.69;4958743;28;19929;-78
2022/01/09 09:32:14;;;;;;;;;;;8.60;99.90;;;5.95;100.00;99200.00;4995470;28;19930;-78
2022/01/09 09:34:41;;;;;;;;;;;5.60;99.90;;;6.00;100.00;99213.81;4961797;28;19930;-78
2022/01/09 09:37:11;;;;;;;;;;;5.90;99.90;;;6.03;100.00;99216.38;4926585;29;19958;-79
2022/01/09 09:39:38;;;;;;;;;;;9.30;99.90;;;6.01;100.00;99217.25;4972884;28;19930;-79
2022/01/09 09:42:05;;;;;;;;;;;7.60;99.90;;;6.07;100.00;99225.00;4973858;28;19926;-79
2022/01/09 09:44:36;;;;;;;;;;;6.10;99.90;;;6.10;100.00;99233.63;4957100;28;19935;-79
2022/01/09 09:47:03;;;;;;;;;;;6.00;99.90;;;6.04;100.00;99222.47;4952294;28;19940;-78
2022/01/09 09:49:30;;;;;;;;;;;7.00;99.90;;;6.01;100.00;99230.31;4970788;28;19949;-78
2022/01/09 09:51:57;;;;;;;;;;;6.60;99.90;;;6.02;100.00;99232.09;4986572;28;19930;-78
2022/01/09 09:54:25;;;;;;;;;;;8.50;99.90;;;6.10;100.00;99245.81;4984600;28;19931;-79
2022/01/09 09:56:52;;;;;;;;;;;5.90;99.90;;;6.04;100.00;99252.03;4954022;29;19976;-78
2022/01/09 09:59:28;;;;;;;;;;;6.90;99.90;;;6.01;100.00;99273.00;4969478;28;19941;-79
2022/01/09 10:01:55;;;;;;;;;;;6.10;99.90;;;5.90;100.00;99262.75;4985161;28;19981;-78
2022/01/09 10:04:22;;;;;;;;;;;6.50;99.90;;;5.87;100.00;99257.63;4969719;28;19930;-79
2022/01/09 10:06:50;;;;;;;;;;;9.20;99.90;;;5.96;100.00;99251.31;4939279;29;19931;-78
2022/01/09 10:09:21;;;;;;;;;;;6.10;99.90;;;5.99;100.00;99269.53;4938739;29;19957;-79
2022/01/09 10:12:06;;;;;;;;;;;5.90;99.90;;;6.04;100.00;99265.09;4947547;29;19919;-79
2022/01/09 10:14:34;;;;;;;;;;;5.10;99.90;;;6.03;100.00;99263.38;4953598;29;19989;-78
2022/01/09 10:17:11;;;;;;;;;;;8.80;99.90;;;6.07;100.00;99283.28;4937213;29;19935;-78
2022/01/09 10:19:51;;;;;;;;;;;6.40;99.90;;;6.08;100.00;99265.88;4953694;29;19937;-78
2022/01/09 10:22:46;;;;;;;;;;;7.00;99.90;;;6.06;100.00;99260.69;4938243;29;19980;-79
2022/01/09 10:25:27;;;;;;;;;;;5.70;99.90;;;6.14;100.00;99276.16;4937668;29;20049;-78
2022/01/09 10:28:00;;;;;;;;;;;6.50;99.90;;;6.13;100.00;99281.44;4952812;28;19930;-77
2022/01/09 10:30:50;;;;;;;;;;;6.20;99.90;;;6.07;100.00;99277.22;4950640;29;19988;-77
2022/01/09 10:33:25;;;;;;;;;;;8.50;99.90;;;6.15;100.00;99283.09;4951475;28;20033;-76
2022/01/09 10:35:52;;;;;;;;;;;8.00;99.90;;;6.22;100.00;99292.53;4950598;28;20172;-76
2022/01/09 10:38:29;;;;;;;;;;;3.60;99.90;;;6.35;100.00;99293.09;4954448;28;19930;-77
2022/01/09 10:41:25;;;;;;;;;;;6.50;99.90;;;6.31;100.00;99295.81;4952023;29;19981;-77
2022/01/09 10:44:27;;;;;;;;;;;6.80;99.90;;;6.31;100.00;99303.66;4948807;28;19934;-78
2022/01/09 10:47:03;;;;;;;;;;;6.30;99.90;;;6.35;100.00;99300.94;4933343;29;20106;-79
2022/01/09 10:49:39;;;;;;;;;;;6.30;99.90;;;6.47;100.00;99312.00;4958543;28;19930;-79
2022/01/09 10:52:26;;;;;;;;;;;6.20;99.90;;;6.43;100.00;99302.53;4940061;28;19927;-79
2022/01/09 10:55:03;;;;;;;;;;;6.30;99.90;;;6.43;100.00;99307.75;4950688;28;19981;-78
2022/01/09 10:57:32;;;;;;;;;;;7.40;99.90;;;6.40;100.00;99308.66;4932090;29;20009;-77
2022/01/09 11:00:16;;;;;;;;;;;6.10;99.90;;;6.47;100.00;99314.59;4956616;29;19998;-77
2022/01/09 11:02:45;;;;;;;;;;;6.40;99.90;;;6.50;100.00;99307.56;4973150;28;19997;-76
2022/01/09 11:05:12;;;;;;;;;;;6.30;99.90;;;6.46;100.00;99299.81;4977673;28;19930;-76
2022/01/09 11:07:49;;;;;;;;;;;7.50;99.90;;;6.61;100.00;99301.19;4949145;28;20446;-80
2022/01/09 11:10:18;;;;;;;;;;;6.30;99.90;;;6.63;100.00;99309.84;4971995;28;19930;-76
2022/01/09 11:12:49;;;;;;;;;;;7.90;99.90;;;6.60;100.00;99299.47;4983902;28;19956;-76
2022/01/09 11:15:21;;;;;;;;;;;8.60;99.90;;;6.57;100.00;99304.78;4961230;28;19934;-76
2022/01/09 11:17:49;;;;;;;;;;;6.60;99.90;;;6.57;100.00;99303.03;4977198;28;19930;-76
2022/01/09 11:20:17;;;;;;;;;;;6.60;99.90;;;6.58;100.00;99293.44;4958537;28;19936;-77
2022/01/09 11:22:47;;;;;;;;;;;5.50;99.90;;;6.53;100.00;99298.75;4975462;28;20403;-78
2022/01/09 11:25:14;;;;;;;;;;;6.40;99.90;;;6.51;100.00;99305.78;4974966;28;19937;-77
2022/01/09 11:27:46;;;;;;;;;;;4.00;99.90;;;6.52;100.00;99303.16;4974125;28;19992;-77
2022/01/09 11:30:20;;;;;;;;;;;6.30;99.90;;;6.53;100.00;99304.88;4967556;28;19930;-76